createdAt,value
2023-03-06T00:02:03.976Z,100756.75
2023-03-06T00:04:31.303Z,100758.03
2023-03-06T00:07:00.045Z,100763.09
2023-03-06T00:09:27.328Z,100760.03
2023-03-06T00:11:54.680Z,100776.75
2023-03-06T00:14:21.988Z,100769.72
2023-03-06T00:16:49.462Z,100779.97
2023-03-06T00:19:16.763Z,100790.56
2023-03-06T00:21:44.134Z,100804.28
2023-03-06T00:24:12.858Z,100814.50
2023-03-06T00:26:40.211Z,100826.69
2023-03-06T00:29:07.620Z,100828.72
2023-03-06T00:31:35.205Z,100846.56
2023-03-06T00:34:02.787Z,100865.81
2023-03-06T00:36:30.768Z,100865.06
2023-03-06T00:38:58.949Z,100878.06
2023-03-06T00:41:28.233Z,100896.09
2023-03-06T00:43:58.471Z,100909.34
2023-03-06T00:46:25.906Z,100926.69
2023-03-06T00:48:53.398Z,100946.25
2023-03-06T00:51:22.127Z,100973.94
2023-03-06T00:53:49.500Z,100991.56
2023-03-06T00:56:18.926Z,101005.78
2023-03-06T00:58:53.075Z,101030.44
2023-03-06T01:01:20.440Z,101031.94
2023-03-06T01:03:50.526Z,101044.81
2023-03-06T01:06:18.164Z,101055.75
2023-03-06T01:08:45.411Z,101063.53
2023-03-06T01:11:12.767Z,101063.44
2023-03-06T01:13:40.457Z,101079.19
2023-03-06T01:16:13.336Z,101088.88
2023-03-06T01:18:42.024Z,101110.44
2023-03-06T01:21:10.656Z,101130.25
2023-03-06T01:23:38.269Z,101150.66
2023-03-06T01:26:10.578Z,101166.34
2023-03-06T01:28:39.504Z,101177.09
2023-03-06T01:31:06.965Z,101210.00
2023-03-06T01:33:36.495Z,101225.41
2023-03-06T01:36:05.232Z,101256.47
2023-03-06T01:38:32.830Z,101259.31
2023-03-06T01:41:00.359Z,101284.25
2023-03-06T01:43:30.856Z,101304.72
2023-03-06T01:46:29.515Z,101321.47
2023-03-06T01:49:01.013Z,101322.78
2023-03-06T01:51:32.933Z,101348.22
2023-03-06T01:54:04.994Z,101367.53
2023-03-06T01:56:34.020Z,101391.44
2023-03-06T01:59:03.044Z,101422.53
2023-03-06T02:01:36.590Z,101438.81
2023-03-06T02:04:06.241Z,101464.28
2023-03-06T02:06:40.098Z,101491.41
2023-03-06T02:09:07.512Z,101513.81
2023-03-06T02:11:34.866Z,101540.81
2023-03-06T02:14:02.899Z,101559.31
2023-03-06T02:16:34.510Z,101591.81
2023-03-06T02:19:04.579Z,101636.16
2023-03-06T02:21:36.275Z,101678.88
2023-03-06T02:24:18.722Z,101700.13
2023-03-06T02:26:48.222Z,101728.56
2023-03-06T02:29:22.005Z,101760.50
2023-03-06T02:31:49.413Z,101775.38
2023-03-06T02:34:50.370Z,101792.28
2023-03-06T02:37:17.981Z,101802.56
2023-03-06T02:39:49.770Z,101857.97
2023-03-06T02:42:20.968Z,101889.72
2023-03-06T02:44:49.254Z,101882.84
2023-03-06T02:47:16.583Z,101889.56
2023-03-06T02:49:43.907Z,101905.69
2023-03-06T02:52:13.474Z,101929.25
2023-03-06T02:54:42.008Z,101937.28
2023-03-06T02:57:09.339Z,101948.72
2023-03-06T02:59:42.034Z,101966.56
2023-03-06T03:02:09.504Z,101988.97
2023-03-06T03:04:36.899Z,102008.38
2023-03-06T03:07:04.681Z,102007.72
2023-03-06T03:09:32.240Z,102025.31
2023-03-06T03:11:59.614Z,102032.53
2023-03-06T03:14:26.879Z,102041.56
2023-03-06T03:16:55.628Z,102052.78
2023-03-06T03:19:25.541Z,102050.72
2023-03-06T03:21:53.017Z,102058.16
2023-03-06T03:24:23.496Z,102071.53
2023-03-06T03:26:50.986Z,102096.00
2023-03-06T03:29:20.371Z,102105.16
2023-03-06T03:31:48.450Z,102115.44
2023-03-06T03:34:17.621Z,102121.50
2023-03-06T03:36:45.113Z,102131.91
2023-03-06T03:39:14.051Z,102142.88
2023-03-06T03:41:42.696Z,102155.22
2023-03-06T03:44:11.007Z,102162.66
2023-03-06T03:46:38.733Z,102170.91
2023-03-06T03:49:10.912Z,102188.38
2023-03-06T03:51:40.184Z,102183.13
2023-03-06T03:54:07.693Z,102189.41
2023-03-06T03:56:40.370Z,102200.38
2023-03-06T03:59:12.570Z,102213.53
2023-03-06T04:01:48.225Z,102214.91
2023-03-06T04:04:15.718Z,102216.75
2023-03-06T04:06:46.182Z,102219.59
2023-03-06T04:09:14.882Z,102235.00
2023-03-06T04:11:42.620Z,102246.91
2023-03-06T04:14:09.990Z,102249.44
2023-03-06T04:16:37.522Z,102257.66
2023-03-06T04:19:04.866Z,102267.50
2023-03-06T04:21:32.477Z,102277.47
2023-03-06T04:24:01.992Z,102280.56
2023-03-06T04:26:29.265Z,102280.31
2023-03-06T04:28:56.762Z,102288.78
2023-03-06T04:31:24.536Z,102295.75
2023-03-06T04:33:52.143Z,102293.09
2023-03-06T04:36:26.982Z,102289.34
2023-03-06T04:38:57.438Z,102294.84
2023-03-06T04:41:26.486Z,102297.91
2023-03-06T04:43:54.239Z,102310.84
2023-03-06T04:46:21.786Z,102313.03
2023-03-06T04:48:49.149Z,102324.00
2023-03-06T04:51:16.498Z,102326.41
2023-03-06T04:53:43.955Z,102319.63
2023-03-06T04:56:11.309Z,102331.88
2023-03-06T04:58:44.794Z,102329.50
2023-03-06T05:01:12.395Z,102329.25
2023-03-06T05:03:40.595Z,102341.16
2023-03-06T05:06:09.965Z,102347.28
2023-03-06T05:08:37.381Z,102350.97
2023-03-06T05:11:05.069Z,102353.03
2023-03-06T05:13:32.457Z,102365.16
2023-03-06T05:16:03.699Z,102358.00
2023-03-06T05:18:31.383Z,102364.69
2023-03-06T05:20:58.734Z,102366.84
2023-03-06T05:23:26.247Z,102372.47
2023-03-06T05:25:53.512Z,102373.94
2023-03-06T05:28:21.439Z,102384.38
2023-03-06T05:30:49.003Z,102382.75
2023-03-06T05:33:18.125Z,102384.25
2023-03-06T05:35:46.160Z,102392.81
2023-03-06T05:38:13.748Z,102400.25
2023-03-06T05:40:41.672Z,102396.03
2023-03-06T05:43:09.556Z,102407.00
2023-03-06T05:45:36.852Z,102408.84
2023-03-06T05:48:04.976Z,102401.53
2023-03-06T05:50:34.049Z,102406.31
2023-03-06T05:53:01.629Z,102409.28
2023-03-06T05:55:28.918Z,102418.00
2023-03-06T05:57:56.616Z,102440.72
2023-03-06T06:00:24.663Z,102493.19
2023-03-06T06:02:52.082Z,102488.38
2023-03-06T06:05:19.488Z,102470.84
2023-03-06T06:07:48.313Z,102466.91
2023-03-06T06:10:15.582Z,102458.69
2023-03-06T06:12:43.166Z,102452.63
2023-03-06T06:15:10.696Z,102441.28
2023-03-06T06:17:38.003Z,102447.22
2023-03-06T06:20:06.178Z,102445.44
2023-03-06T06:22:36.209Z,102442.47
2023-03-06T06:25:06.123Z,102447.16
2023-03-06T06:27:33.615Z,102428.53
2023-03-06T06:30:00.907Z,102449.34
2023-03-06T06:32:28.342Z,102471.09
2023-03-06T06:34:55.766Z,102451.84
2023-03-06T06:37:23.219Z,102459.06
2023-03-06T06:39:52.758Z,102460.53
2023-03-06T06:42:32.934Z,102473.28
2023-03-06T06:45:02.954Z,102500.66
2023-03-06T06:47:31.043Z,102497.56
2023-03-06T06:50:02.534Z,102487.97
2023-03-06T06:52:29.890Z,102496.00
2023-03-06T06:54:57.427Z,102503.13
2023-03-06T06:57:31.306Z,102508.63
2023-03-06T06:59:58.691Z,102522.81
2023-03-06T07:02:26.006Z,102518.72
2023-03-06T07:05:03.683Z,102521.19
2023-03-06T07:07:38.409Z,102517.97
2023-03-06T07:10:07.704Z,102526.13
2023-03-06T07:12:40.833Z,102517.69
2023-03-06T07:15:09.441Z,102520.25
2023-03-06T07:17:36.748Z,102518.09
2023-03-06T07:20:04.634Z,102521.31
2023-03-06T07:22:38.698Z,102510.53
2023-03-06T07:25:16.288Z,102514.88
2023-03-06T07:27:51.063Z,102510.22
2023-03-06T07:30:21.169Z,102524.66
2023-03-06T07:32:48.440Z,102513.84
2023-03-06T07:35:20.338Z,102526.59
2023-03-06T07:37:48.216Z,102529.16
2023-03-06T07:40:15.537Z,102524.88
2023-03-06T07:42:43.047Z,102540.53
2023-03-06T07:45:15.279Z,102558.81
2023-03-06T07:47:42.644Z,102533.25
2023-03-06T07:50:11.484Z,102523.78
2023-03-06T07:52:38.968Z,102516.72
2023-03-06T07:55:07.461Z,102520.25
2023-03-06T07:57:35.019Z,102513.75
2023-03-06T08:00:03.041Z,102509.53
2023-03-06T08:02:42.407Z,102513.75
2023-03-06T08:05:13.123Z,102507.06
2023-03-06T08:07:40.572Z,102516.56
2023-03-06T08:10:08.667Z,102527.59
2023-03-06T08:12:36.257Z,102539.47
2023-03-06T08:15:04.006Z,102537.78
2023-03-06T08:17:31.518Z,102504.63
2023-03-06T08:20:00.277Z,102499.09
2023-03-06T08:22:27.692Z,102476.84
2023-03-06T08:24:55.331Z,102450.72
2023-03-06T08:27:22.717Z,102455.00
2023-03-06T08:29:49.997Z,102449.28
2023-03-06T08:32:17.346Z,102421.88
2023-03-06T08:34:44.852Z,102386.59
2023-03-06T08:37:13.621Z,102349.22
2023-03-06T08:39:40.931Z,102309.19
2023-03-06T08:42:09.375Z,102252.34
2023-03-06T08:44:36.850Z,102201.31
2023-03-06T08:47:04.618Z,102143.28
2023-03-06T08:49:31.876Z,102097.69
2023-03-06T08:51:59.218Z,102071.09
2023-03-06T08:54:27.893Z,102016.47
2023-03-06T08:56:55.248Z,101937.69
2023-03-06T08:59:22.658Z,101857.72
2023-03-06T09:01:50.234Z,101776.59
2023-03-06T09:04:17.631Z,101695.41
2023-03-06T09:06:45.160Z,101639.81
2023-03-06T09:09:13.470Z,101619.75
2023-03-06T09:11:44.468Z,101580.66
2023-03-06T09:14:11.799Z,101571.75
2023-03-06T09:16:40.704Z,101555.44
2023-03-06T09:19:08.732Z,101543.09
2023-03-06T09:21:35.982Z,101536.81
2023-03-06T09:24:03.327Z,101524.28
2023-03-06T09:26:45.113Z,101525.34
2023-03-06T09:29:15.023Z,101508.91
2023-03-06T09:31:42.367Z,101498.00
2023-03-06T09:34:09.785Z,101473.47
2023-03-06T09:36:53.388Z,101448.22
2023-03-06T09:39:26.061Z,101420.75
2023-03-06T09:41:54.838Z,101415.19
2023-03-06T09:44:26.953Z,101405.94
2023-03-06T09:47:16.158Z,101390.34
2023-03-06T09:50:03.484Z,101361.25
2023-03-06T09:52:36.509Z,101340.53
2023-03-06T09:55:12.454Z,101307.94
2023-03-06T09:57:45.103Z,101275.25
2023-03-06T10:00:16.558Z,101261.34
2023-03-06T10:02:47.788Z,101222.66
2023-03-06T10:05:21.565Z,101180.22
2023-03-06T10:07:52.780Z,101138.81
2023-03-06T10:10:24.142Z,101108.72
2023-03-06T10:13:00.361Z,101056.75
2023-03-06T10:15:33.373Z,101004.91
2023-03-06T10:18:03.143Z,100971.09
2023-03-06T10:20:36.999Z,100935.81
2023-03-06T10:23:40.164Z,100893.09
2023-03-06T10:26:13.246Z,100824.97
2023-03-06T10:28:42.676Z,100788.03
2023-03-06T10:31:16.499Z,100750.22
2023-03-06T10:33:52.720Z,100693.06
2023-03-06T10:36:21.809Z,100559.97
2023-03-06T10:38:49.132Z,100464.34
2023-03-06T10:41:22.400Z,100361.31
2023-03-06T10:44:21.419Z,100245.63
2023-03-06T10:46:52.088Z,100154.00
2023-03-06T10:49:29.708Z,100082.03
2023-03-06T10:52:00.307Z,100038.88
2023-03-06T10:54:29.178Z,99990.19
2023-03-06T10:56:56.793Z,99948.34
2023-03-06T10:59:26.199Z,99935.44
2023-03-06T11:01:56.682Z,99899.03
2023-03-06T11:04:27.545Z,99875.91
2023-03-06T11:07:15.965Z,99861.84
2023-03-06T11:09:45.159Z,99858.69
2023-03-06T11:12:25.760Z,99831.00
2023-03-06T11:15:20.405Z,99809.97
2023-03-06T11:17:58.838Z,99769.09
2023-03-06T11:20:41.252Z,99736.91
2023-03-06T11:23:18.024Z,99705.00
2023-03-06T11:25:48.263Z,99675.41
2023-03-06T11:28:21.278Z,99626.47
2023-03-06T11:30:52.266Z,99572.06
2023-03-06T11:33:28.166Z,99496.19
2023-03-06T11:35:59.850Z,99433.44
2023-03-06T11:38:38.612Z,99391.56
2023-03-06T11:41:15.207Z,99353.88
2023-03-06T11:43:50.832Z,99355.88
2023-03-06T11:46:21.189Z,99305.97
2023-03-06T11:48:53.845Z,99290.09
2023-03-06T11:51:23.205Z,99285.94
2023-03-06T11:53:50.538Z,99298.44
2023-03-06T11:56:31.906Z,99316.81
2023-03-06T11:59:34.367Z,99302.31
2023-03-06T12:02:13.544Z,99301.13
2023-03-06T12:04:57.229Z,99292.41
2023-03-06T12:07:31.161Z,99284.72
2023-03-06T12:10:11.036Z,99267.94
2023-03-06T12:13:10.828Z,99260.38
2023-03-06T12:15:52.968Z,99294.09
2023-03-06T12:18:34.918Z,99294.88
2023-03-06T12:21:10.592Z,99318.91
2023-03-06T12:23:55.369Z,99331.41
2023-03-06T12:26:44.950Z,99335.94
2023-03-06T12:29:28.359Z,99465.19
2023-03-06T12:32:11.047Z,99500.06
2023-03-06T12:35:06.010Z,99674.66
2023-03-06T12:37:49.355Z,99851.63
2023-03-06T12:40:48.122Z,100113.88
2023-03-06T12:43:51.782Z,100171.09
2023-03-06T12:46:21.286Z,100234.31
2023-03-06T12:49:01.028Z,100249.47
2023-03-06T12:51:29.458Z,100274.59
2023-03-06T12:53:59.932Z,100308.25
2023-03-06T12:56:28.643Z,100302.28
2023-03-06T12:58:57.563Z,100289.69
2023-03-06T13:02:07.317Z,100278.91
2023-03-06T13:05:10.481Z,100264.53
2023-03-06T13:07:56.962Z,100254.13
2023-03-06T13:10:30.193Z,100272.38
2023-03-06T13:13:00.139Z,100326.06
2023-03-06T13:15:41.942Z,100303.53
2023-03-06T13:18:41.943Z,100341.00
2023-03-06T13:22:06.414Z,100391.94
2023-03-06T13:24:35.129Z,100389.94
2023-03-06T13:27:06.328Z,100375.84
2023-03-06T13:30:05.219Z,100337.19
2023-03-06T13:32:34.817Z,100388.28
2023-03-06T13:35:45.963Z,100384.84
2023-03-06T13:38:33.156Z,100394.22
2023-03-06T13:41:42.081Z,100381.06
2023-03-06T13:44:45.835Z,100366.66
2023-03-06T13:47:34.495Z,100371.19
2023-03-06T13:50:17.737Z,100349.41
2023-03-06T13:53:01.128Z,100347.56
2023-03-06T13:55:38.101Z,100370.31
2023-03-06T13:58:22.909Z,100372.50
2023-03-06T14:01:16.283Z,100370.38
2023-03-06T14:04:18.879Z,100366.66
2023-03-06T14:07:06.478Z,100379.88
2023-03-06T14:09:37.465Z,100368.94
2023-03-06T14:12:08.098Z,100362.97
2023-03-06T14:14:40.146Z,100367.22
2023-03-06T14:17:19.896Z,100351.31
2023-03-06T14:19:49.284Z,100360.63
2023-03-06T14:22:20.933Z,100354.56
2023-03-06T14:24:56.453Z,100340.56
2023-03-06T14:27:38.774Z,100364.50
2023-03-06T14:30:08.484Z,100362.03
2023-03-06T14:32:38.731Z,100354.75
2023-03-06T14:35:26.533Z,100354.53
2023-03-06T14:37:57.579Z,100377.16
2023-03-06T14:40:32.804Z,100355.28
2023-03-06T14:43:12.211Z,100360.28
2023-03-06T14:45:50.224Z,100357.44
2023-03-06T14:48:17.937Z,100357.97
2023-03-06T14:50:50.759Z,100353.22
2023-03-06T14:53:22.042Z,100355.50
2023-03-06T14:55:51.574Z,100357.75
2023-03-06T14:58:25.553Z,100369.47
2023-03-06T15:00:54.159Z,100375.97
2023-03-06T15:03:25.213Z,100372.66
2023-03-06T15:05:55.235Z,100366.09
2023-03-06T15:08:27.401Z,100366.94
2023-03-06T15:10:57.977Z,100359.81
2023-03-06T15:13:27.433Z,100354.09
2023-03-06T15:16:00.921Z,100350.97
2023-03-06T15:18:31.031Z,100331.81
2023-03-06T15:21:14.794Z,100325.31
2023-03-06T15:23:44.152Z,100339.00
2023-03-06T15:26:21.679Z,100318.41
2023-03-06T15:29:08.153Z,100299.00
2023-03-06T15:31:37.636Z,100273.06
2023-03-06T15:34:19.674Z,100271.41
2023-03-06T15:36:50.345Z,100234.16
2023-03-06T15:39:41.561Z,100220.91
2023-03-06T15:42:19.986Z,100200.47
2023-03-06T15:44:50.250Z,100184.44
2023-03-06T15:47:17.935Z,100190.03
2023-03-06T15:49:45.610Z,100168.41
2023-03-06T15:52:14.382Z,100135.38
2023-03-06T15:54:41.699Z,100128.84
2023-03-06T15:57:18.945Z,100124.44
2023-03-06T15:59:46.468Z,100137.13
2023-03-06T16:02:16.123Z,100120.63
2023-03-06T16:04:44.063Z,100104.19
2023-03-06T16:07:11.744Z,100106.06
2023-03-06T16:09:41.558Z,100105.47
2023-03-06T16:12:15.048Z,100087.22
2023-03-06T16:14:42.824Z,100078.34
2023-03-06T16:17:11.440Z,100054.63
2023-03-06T16:19:39.053Z,100052.50
2023-03-06T16:22:06.432Z,100013.97
2023-03-06T16:24:33.835Z,100010.63
2023-03-06T16:27:03.109Z,100013.19
2023-03-06T16:29:30.829Z,100013.47
2023-03-06T16:31:59.166Z,99977.78
2023-03-06T16:34:26.629Z,99962.41
2023-03-06T16:36:57.547Z,99925.59
2023-03-06T16:39:24.811Z,99886.16
2023-03-06T16:41:53.770Z,99864.00
2023-03-06T16:44:22.631Z,99841.41
2023-03-06T16:46:50.213Z,99845.97
2023-03-06T16:49:19.744Z,99803.84
2023-03-06T16:51:47.320Z,99796.66
2023-03-06T16:54:15.208Z,99783.47
2023-03-06T16:56:43.078Z,99758.19
2023-03-06T16:59:11.251Z,99748.34
2023-03-06T17:01:41.393Z,99696.56
2023-03-06T17:04:08.826Z,99686.75
2023-03-06T17:06:36.698Z,99676.16
2023-03-06T17:09:04.247Z,99640.53
2023-03-06T17:11:31.610Z,99600.34
2023-03-06T17:13:58.957Z,99597.19
2023-03-06T17:16:26.211Z,99566.47
2023-03-06T17:18:55.039Z,99566.22
2023-03-06T17:21:22.318Z,99552.84
2023-03-06T17:23:49.725Z,99521.03
2023-03-06T17:26:19.182Z,99488.28
2023-03-06T17:28:47.134Z,99475.47
2023-03-06T17:31:15.399Z,99429.53
2023-03-06T17:33:43.626Z,99398.78
2023-03-06T17:36:12.992Z,99356.28
2023-03-06T17:38:40.501Z,99311.53
2023-03-06T17:41:09.424Z,99312.72
2023-03-06T17:43:37.710Z,99294.97
2023-03-06T17:46:06.423Z,99295.16
2023-03-06T17:48:34.386Z,99283.47
2023-03-06T17:51:02.332Z,99250.88
2023-03-06T17:53:31.277Z,99228.31
2023-03-06T17:55:58.847Z,99234.47
2023-03-06T17:58:26.888Z,99227.75
2023-03-06T18:00:54.360Z,99223.88
2023-03-06T18:03:22.170Z,99211.19
2023-03-06T18:05:58.925Z,99214.94
2023-03-06T18:08:26.441Z,99236.44
2023-03-06T18:10:59.973Z,99231.66
2023-03-06T18:13:27.469Z,99203.44
2023-03-06T18:15:54.811Z,99212.03
2023-03-06T18:18:22.316Z,99174.69
2023-03-06T18:20:49.841Z,99171.50
2023-03-06T18:23:17.535Z,99170.06
2023-03-06T18:25:45.025Z,99201.78
2023-03-06T18:28:15.120Z,99182.94
2023-03-06T18:30:42.570Z,99171.59
2023-03-06T18:33:10.119Z,99162.13
2023-03-06T18:35:37.644Z,99156.28
2023-03-06T18:38:05.076Z,99137.00
2023-03-06T18:40:32.447Z,99138.63
2023-03-06T18:42:59.956Z,99152.84
2023-03-06T18:45:28.677Z,99115.16
2023-03-06T18:47:56.090Z,99126.16
2023-03-06T18:50:23.373Z,99118.16
2023-03-06T18:52:50.670Z,99096.75
2023-03-06T18:55:18.200Z,99098.81
2023-03-06T18:57:45.560Z,99076.00
2023-03-06T19:00:13.631Z,99079.19
2023-03-06T19:02:42.413Z,99071.63
2023-03-06T19:05:09.962Z,99056.97
2023-03-06T19:07:37.286Z,99073.03
2023-03-06T19:10:05.443Z,99052.97
2023-03-06T19:12:33.016Z,99030.94
2023-03-06T19:15:01.895Z,99034.16
2023-03-06T19:17:29.378Z,99012.56
2023-03-06T19:19:58.182Z,99010.47
2023-03-06T19:22:25.582Z,98998.22
2023-03-06T19:24:52.876Z,98999.56
2023-03-06T19:27:20.905Z,98999.13
2023-03-06T19:29:48.415Z,98989.22
2023-03-06T19:32:15.949Z,98975.97
2023-03-06T19:34:43.765Z,98954.25
2023-03-06T19:37:12.476Z,98957.13
2023-03-06T19:39:39.862Z,98958.56
2023-03-06T19:42:07.328Z,98959.66
2023-03-06T19:44:34.651Z,98946.66
2023-03-06T19:47:02.278Z,98953.06
2023-03-06T19:49:29.592Z,98923.53
2023-03-06T19:51:57.331Z,98950.31
2023-03-06T19:54:26.597Z,98908.00
2023-03-06T19:56:54.032Z,98910.09
2023-03-06T19:59:21.991Z,98894.78
2023-03-06T20:01:49.544Z,98869.09
2023-03-06T20:04:17.043Z,98883.53
2023-03-06T20:06:49.292Z,98867.00
2023-03-06T20:09:17.402Z,98863.81
2023-03-06T20:11:46.031Z,98842.53
2023-03-06T20:14:14.544Z,98826.31
2023-03-06T20:16:41.925Z,98831.28
2023-03-06T20:19:10.850Z,98810.44
2023-03-06T20:21:38.456Z,98822.03
2023-03-06T20:24:07.428Z,98811.00
2023-03-06T20:26:35.057Z,98794.03
2023-03-06T20:29:04.046Z,98780.13
2023-03-06T20:31:31.457Z,98779.94
2023-03-06T20:33:59.515Z,98783.09
2023-03-06T20:36:28.445Z,98798.72
2023-03-06T20:38:56.230Z,98768.88
2023-03-06T20:41:26.534Z,98747.72
2023-03-06T20:43:54.433Z,98721.09
2023-03-06T20:46:23.565Z,98706.78
2023-03-06T20:48:53.114Z,98668.84
2023-03-06T20:51:22.204Z,98653.72
2023-03-06T20:53:51.449Z,98634.13
2023-03-06T20:56:20.767Z,98613.91
2023-03-06T20:58:48.414Z,98606.75
2023-03-06T21:01:19.786Z,98584.84
2023-03-06T21:03:48.890Z,98573.50
2023-03-06T21:06:17.267Z,98559.53
2023-03-06T21:08:44.775Z,98549.84
2023-03-06T21:11:12.038Z,98549.03
2023-03-06T21:13:39.544Z,98567.31
2023-03-06T21:16:08.862Z,98559.00
2023-03-06T21:18:36.612Z,98583.41
2023-03-06T21:21:06.736Z,98616.47
2023-03-06T21:23:34.173Z,98639.50
2023-03-06T21:26:01.532Z,98681.34
2023-03-06T21:28:28.945Z,98737.13
2023-03-06T21:30:56.630Z,98800.09
2023-03-06T21:33:23.991Z,98839.28
2023-03-06T21:35:51.324Z,99013.16
2023-03-06T21:38:20.236Z,99092.09
2023-03-06T21:40:47.478Z,99137.78
2023-03-06T21:43:14.874Z,99182.41
2023-03-06T21:45:43.981Z,99224.88
2023-03-06T21:48:11.793Z,99270.81
2023-03-06T21:50:41.375Z,99304.22
2023-03-06T21:53:09.364Z,99323.09
2023-03-06T21:55:42.429Z,99337.19
2023-03-06T21:58:10.214Z,99357.66
2023-03-06T22:00:38.397Z,99363.66
2023-03-06T22:03:05.699Z,99395.47
2023-03-06T22:05:33.040Z,99403.22
2023-03-06T22:08:00.394Z,99409.06
2023-03-06T22:10:28.025Z,99412.63
2023-03-06T22:12:56.852Z,99414.22
2023-03-06T22:15:24.100Z,99424.47
2023-03-06T22:17:51.441Z,99443.31
2023-03-06T22:20:19.044Z,99433.09
2023-03-06T22:22:46.406Z,99439.34
2023-03-06T22:25:14.051Z,99436.94
2023-03-06T22:27:41.511Z,99442.38
2023-03-06T22:30:11.449Z,99445.91
2023-03-06T22:32:38.785Z,99447.81
2023-03-06T22:35:06.813Z,99432.84
2023-03-06T22:37:34.171Z,99442.31
2023-03-06T22:40:01.422Z,99430.59
2023-03-06T22:42:28.782Z,99414.00
2023-03-06T22:44:56.083Z,99423.75
2023-03-06T22:47:24.839Z,99428.91
2023-03-06T22:49:52.134Z,99413.84
2023-03-06T22:52:19.620Z,99402.09
2023-03-06T22:54:46.930Z,99401.22
2023-03-06T22:57:14.479Z,99397.25
2023-03-06T22:59:42.123Z,99391.75
2023-03-06T23:02:09.472Z,99384.22
2023-03-06T23:04:38.627Z,99384.56
2023-03-06T23:07:05.976Z,99384.56
2023-03-06T23:09:33.244Z,99390.94
2023-03-06T23:12:19.033Z,99377.16
2023-03-06T23:15:05.892Z,99367.34
2023-03-06T23:17:51.776Z,99358.56
2023-03-06T23:20:42.828Z,99346.78
2023-03-06T23:23:28.707Z,99361.75
2023-03-06T23:25:59.191Z,99362.97
2023-03-06T23:28:27.189Z,99356.69
2023-03-06T23:30:54.550Z,99349.63
2023-03-06T23:33:22.101Z,99365.81
2023-03-06T23:35:51.031Z,99361.84
2023-03-06T23:38:18.524Z,99367.75
2023-03-06T23:40:46.050Z,99359.50
2023-03-06T23:43:13.413Z,99370.94
2023-03-06T23:45:40.779Z,99370.59
2023-03-06T23:48:08.146Z,99374.50
2023-03-06T23:50:35.513Z,99372.56
2023-03-06T23:53:04.291Z,99389.16
2023-03-06T23:55:31.662Z,99375.41
2023-03-06T23:57:58.981Z,99375.91
